Hovedside
METAR-TAF:

METAR-TAF

Lufthavner :

Tartu lufthavn

Tartu, Estland

breddegrad: 58-18N, lengdegrad: 026-44E, høyde over havet: 59 m

Gjeldene værobservasjon

Denne rapporten ble laget for 43 minutter siden, klokken 13:50 UTC
Vind 11 kt fra Nordøst, skiftende mellom Nord og Øst
Temperatur 29°C
Luftfuktighet 37%
Trykk 1009 hPa
Sikt 10 km eller mer

METAR: EETU 181350Z AUTO 04011KT 360V080 9999 NCD 29/13 Q1009

Tid: 17:33 (14:33 UTC)

Varsel

Denne rapporten ble laget for 18 timer og 33 minutter siden, klokken 20:00 UTC
Varsel gyldig fra 17. klokken 21 UTC til 18. klokken 03 UTC
Vind 7 kt fra Nordøst
Sikt 10 km eller mer
ingen skyer under 1500 m og ingen bygeskyer

TAF: EETU 172000Z 1721/1803 05007KT CAVOK

Værobservasjoner og værvarsel for over 4000 flyplasser (METAR- og TAF-rapporter).

Tilgjengelige stasjoner er representert av de røde og gule prikkene på kartet.

Hold musepekeren over prikken for å se navnet på stasjonen.

Klikk så for å se værobservasjoner og -varsler.

For å forandre kartet kan du klikke på den grønne knappen med svart kryss for å zoome inn, på den grønne knappen med strek for å zoome ut, eller på de grønne pilene for å se tilstøtende kart.


METAR-TAF: